sensor_id;sensor_type;location;lat;lon;timestamp;P1;durP1;ratioP1;P2;durP2;ratioP2
4206;SDS011;2117;47.972;7.830;2023-03-01T00:02:12;25.00;;;15.13;;
4206;SDS011;2117;47.972;7.830;2023-03-01T00:04:41;19.40;;;14.50;;
4206;SDS011;2117;47.972;7.830;2023-03-01T00:07:07;21.03;;;13.13;;
4206;SDS011;2117;47.972;7.830;2023-03-01T00:09:33;20.73;;;13.47;;
4206;SDS011;2117;47.972;7.830;2023-03-01T00:12:01;28.30;;;13.50;;
4206;SDS011;2117;47.972;7.830;2023-03-01T00:14:30;22.63;;;12.60;;
4206;SDS011;2117;47.972;7.830;2023-03-01T00:16:55;22.93;;;14.30;;
4206;SDS011;2117;47.972;7.830;2023-03-01T00:19:23;19.60;;;12.57;;
4206;SDS011;2117;47.972;7.830;2023-03-01T00:21:54;22.93;;;13.90;;
4206;SDS011;2117;47.972;7.830;2023-03-01T00:24:23;23.27;;;13.60;;
4206;SDS011;2117;47.972;7.830;2023-03-01T00:26:52;27.57;;;15.00;;
4206;SDS011;2117;47.972;7.830;2023-03-01T00:29:20;21.00;;;13.80;;
4206;SDS011;2117;47.972;7.830;2023-03-01T00:31:51;21.87;;;13.90;;
4206;SDS011;2117;47.972;7.830;2023-03-01T00:34:17;30.10;;;14.83;;
4206;SDS011;2117;47.972;7.830;2023-03-01T00:36:43;21.33;;;14.30;;
4206;SDS011;2117;47.972;7.830;2023-03-01T00:39:11;22.43;;;14.03;;
4206;SDS011;2117;47.972;7.830;2023-03-01T00:41:39;21.13;;;12.90;;
4206;SDS011;2117;47.972;7.830;2023-03-01T00:44:05;27.30;;;14.23;;
4206;SDS011;2117;47.972;7.830;2023-03-01T00:46:30;25.27;;;14.40;;
4206;SDS011;2117;47.972;7.830;2023-03-01T00:48:57;19.63;;;12.97;;
4206;SDS011;2117;47.972;7.830;2023-03-01T00:51:24;21.07;;;13.43;;
4206;SDS011;2117;47.972;7.830;2023-03-01T00:53:52;23.57;;;13.70;;
4206;SDS011;2117;47.972;7.830;2023-03-01T00:56:19;25.10;;;13.70;;
4206;SDS011;2117;47.972;7.830;2023-03-01T00:58:45;25.30;;;13.70;;
4206;SDS011;2117;47.972;7.830;2023-03-01T01:01:12;20.30;;;12.70;;
4206;SDS011;2117;47.972;7.830;2023-03-01T01:03:43;19.10;;;13.10;;
4206;SDS011;2117;47.972;7.830;2023-03-01T01:06:21;22.40;;;13.90;;
4206;SDS011;2117;47.972;7.830;2023-03-01T01:08:49;18.63;;;12.13;;
4206;SDS011;2117;47.972;7.830;2023-03-01T01:11:15;22.80;;;13.27;;
4206;SDS011;2117;47.972;7.830;2023-03-01T01:13:41;22.40;;;12.40;;
4206;SDS011;2117;47.972;7.830;2023-03-01T01:16:08;21.33;;;14.43;;
4206;SDS011;2117;47.972;7.830;2023-03-01T01:18:34;18.80;;;10.90;;
4206;SDS011;2117;47.972;7.830;2023-03-01T01:21:04;18.57;;;11.27;;
4206;SDS011;2117;47.972;7.830;2023-03-01T01:23:31;19.80;;;12.83;;
4206;SDS011;2117;47.972;7.830;2023-03-01T01:25:57;23.60;;;12.90;;
4206;SDS011;2117;47.972;7.830;2023-03-01T01:28:22;21.30;;;13.30;;
4206;SDS011;2117;47.972;7.830;2023-03-01T01:30:48;20.00;;;12.83;;
4206;SDS011;2117;47.972;7.830;2023-03-01T01:33:13;24.53;;;11.43;;
4206;SDS011;2117;47.972;7.830;2023-03-01T01:35:39;22.00;;;12.13;;
4206;SDS011;2117;47.972;7.830;2023-03-01T01:38:04;22.50;;;14.17;;
4206;SDS011;2117;47.972;7.830;2023-03-01T01:40:30;19.40;;;12.17;;
4206;SDS011;2117;47.972;7.830;2023-03-01T01:42:55;25.77;;;13.80;;
4206;SDS011;2117;47.972;7.830;2023-03-01T01:45:29;23.67;;;13.27;;
4206;SDS011;2117;47.972;7.830;2023-03-01T01:48:06;20.67;;;12.77;;
4206;SDS011;2117;47.972;7.830;2023-03-01T01:50:40;23.70;;;13.83;;
4206;SDS011;2117;47.972;7.830;2023-03-01T01:53:09;21.60;;;13.40;;
4206;SDS011;2117;47.972;7.830;2023-03-01T01:55:42;25.47;;;13.70;;
4206;SDS011;2117;47.972;7.830;2023-03-01T01:58:11;27.23;;;14.27;;
4206;SDS011;2117;47.972;7.830;2023-03-01T02:00:40;20.83;;;12.97;;
4206;SDS011;2117;47.972;7.830;2023-03-01T02:03:17;20.00;;;12.33;;
4206;SDS011;2117;47.972;7.830;2023-03-01T02:05:56;22.63;;;13.03;;
4206;SDS011;2117;47.972;7.830;2023-03-01T02:08:30;23.30;;;13.77;;
4206;SDS011;2117;47.972;7.830;2023-03-01T02:11:00;22.53;;;12.53;;
4206;SDS011;2117;47.972;7.830;2023-03-01T02:13:29;26.10;;;13.50;;
4206;SDS011;2117;47.972;7.830;2023-03-01T02:15:57;20.33;;;12.27;;
4206;SDS011;2117;47.972;7.830;2023-03-01T02:18:23;26.13;;;13.83;;
4206;SDS011;2117;47.972;7.830;2023-03-01T02:23:53;22.03;;;13.17;;
4206;SDS011;2117;47.972;7.830;2023-03-01T02:26:22;29.20;;;14.33;;
4206;SDS011;2117;47.972;7.830;2023-03-01T02:28:58;24.27;;;14.80;;
4206;SDS011;2117;47.972;7.830;2023-03-01T02:31:24;20.67;;;12.80;;
4206;SDS011;2117;47.972;7.830;2023-03-01T02:34:08;27.27;;;14.70;;
4206;SDS011;2117;47.972;7.830;2023-03-01T02:36:41;26.60;;;14.60;;
4206;SDS011;2117;47.972;7.830;2023-03-01T02:39:13;28.20;;;15.60;;
4206;SDS011;2117;47.972;7.830;2023-03-01T02:41:43;26.17;;;14.80;;
4206;SDS011;2117;47.972;7.830;2023-03-01T02:44:12;23.23;;;13.93;;
4206;SDS011;2117;47.972;7.830;2023-03-01T02:46:44;23.90;;;13.07;;
4206;SDS011;2117;47.972;7.830;2023-03-01T02:49:26;25.43;;;16.00;;
4206;SDS011;2117;47.972;7.830;2023-03-01T02:54:34;24.43;;;13.70;;
4206;SDS011;2117;47.972;7.830;2023-03-01T02:57:20;25.37;;;14.23;;
4206;SDS011;2117;47.972;7.830;2023-03-01T02:59:48;24.47;;;12.90;;
4206;SDS011;2117;47.972;7.830;2023-03-01T03:02:21;24.00;;;12.80;;
4206;SDS011;2117;47.972;7.830;2023-03-01T03:08:00;23.27;;;12.50;;
4206;SDS011;2117;47.972;7.830;2023-03-01T03:10:28;22.30;;;12.73;;
4206;SDS011;2117;47.972;7.830;2023-03-01T03:12:59;22.30;;;13.93;;
4206;SDS011;2117;47.972;7.830;2023-03-01T03:15:27;27.30;;;15.77;;
4206;SDS011;2117;47.972;7.830;2023-03-01T03:17:54;24.37;;;13.40;;
4206;SDS011;2117;47.972;7.830;2023-03-01T03:20:21;22.30;;;13.80;;
4206;SDS011;2117;47.972;7.830;2023-03-01T03:22:50;25.10;;;13.33;;
4206;SDS011;2117;47.972;7.830;2023-03-01T03:25:18;24.30;;;13.03;;
4206;SDS011;2117;47.972;7.830;2023-03-01T03:27:44;26.90;;;14.77;;
4206;SDS011;2117;47.972;7.830;2023-03-01T03:30:14;21.60;;;15.43;;
4206;SDS011;2117;47.972;7.830;2023-03-01T03:32:43;22.70;;;12.80;;
4206;SDS011;2117;47.972;7.830;2023-03-01T03:35:17;25.40;;;14.63;;
4206;SDS011;2117;47.972;7.830;2023-03-01T03:37:44;32.17;;;14.63;;
4206;SDS011;2117;47.972;7.830;2023-03-01T03:40:29;23.77;;;13.40;;
4206;SDS011;2117;47.972;7.830;2023-03-01T03:42:56;21.77;;;13.60;;
4206;SDS011;2117;47.972;7.830;2023-03-01T03:45:22;26.87;;;13.33;;
4206;SDS011;2117;47.972;7.830;2023-03-01T03:47:47;25.23;;;13.97;;
4206;SDS011;2117;47.972;7.830;2023-03-01T03:50:14;20.87;;;12.47;;
4206;SDS011;2117;47.972;7.830;2023-03-01T03:52:41;22.20;;;13.03;;
4206;SDS011;2117;47.972;7.830;2023-03-01T03:55:07;23.50;;;14.20;;
4206;SDS011;2117;47.972;7.830;2023-03-01T03:57:34;20.40;;;11.77;;
4206;SDS011;2117;47.972;7.830;2023-03-01T04:00:00;22.67;;;13.70;;
4206;SDS011;2117;47.972;7.830;2023-03-01T04:02:28;23.70;;;14.37;;
4206;SDS011;2117;47.972;7.830;2023-03-01T04:04:54;26.43;;;14.17;;
4206;SDS011;2117;47.972;7.830;2023-03-01T04:07:19;22.07;;;12.13;;
4206;SDS011;2117;47.972;7.830;2023-03-01T04:09:45;19.40;;;13.33;;
4206;SDS011;2117;47.972;7.830;2023-03-01T04:12:10;28.47;;;14.50;;
4206;SDS011;2117;47.972;7.830;2023-03-01T04:14:36;23.87;;;15.27;;
4206;SDS011;2117;47.972;7.830;2023-03-01T04:17:02;29.93;;;16.33;;
4206;SDS011;2117;47.972;7.830;2023-03-01T04:19:30;26.93;;;15.10;;
4206;SDS011;2117;47.972;7.830;2023-03-01T04:22:02;26.70;;;15.63;;
4206;SDS011;2117;47.972;7.830;2023-03-01T04:24:34;26.53;;;15.47;;
4206;SDS011;2117;47.972;7.830;2023-03-01T04:27:00;26.63;;;16.63;;
4206;SDS011;2117;47.972;7.830;2023-03-01T04:29:25;27.17;;;13.77;;
4206;SDS011;2117;47.972;7.830;2023-03-01T04:31:51;27.43;;;15.10;;
4206;SDS011;2117;47.972;7.830;2023-03-01T04:34:17;26.73;;;15.23;;
4206;SDS011;2117;47.972;7.830;2023-03-01T04:36:42;25.53;;;15.27;;
4206;SDS011;2117;47.972;7.830;2023-03-01T04:39:08;29.40;;;14.63;;
4206;SDS011;2117;47.972;7.830;2023-03-01T04:41:37;26.77;;;14.20;;
4206;SDS011;2117;47.972;7.830;2023-03-01T04:44:04;29.90;;;15.70;;
4206;SDS011;2117;47.972;7.830;2023-03-01T04:46:30;30.67;;;16.20;;
4206;SDS011;2117;47.972;7.830;2023-03-01T04:48:55;27.27;;;16.00;;
4206;SDS011;2117;47.972;7.830;2023-03-01T04:51:21;25.20;;;16.03;;
4206;SDS011;2117;47.972;7.830;2023-03-01T04:53:47;29.73;;;16.23;;
4206;SDS011;2117;47.972;7.830;2023-03-01T04:56:12;26.23;;;16.10;;
4206;SDS011;2117;47.972;7.830;2023-03-01T04:58:39;27.87;;;16.20;;
4206;SDS011;2117;47.972;7.830;2023-03-01T05:01:11;26.30;;;14.40;;
4206;SDS011;2117;47.972;7.830;2023-03-01T05:03:42;25.33;;;14.90;;
4206;SDS011;2117;47.972;7.830;2023-03-01T05:06:12;29.20;;;14.97;;
4206;SDS011;2117;47.972;7.830;2023-03-01T05:08:38;27.53;;;15.17;;
4206;SDS011;2117;47.972;7.830;2023-03-01T05:11:04;29.60;;;14.87;;
4206;SDS011;2117;47.972;7.830;2023-03-01T05:13:31;30.27;;;15.73;;
4206;SDS011;2117;47.972;7.830;2023-03-01T05:15:58;25.27;;;15.27;;
4206;SDS011;2117;47.972;7.830;2023-03-01T05:18:25;27.90;;;16.50;;
4206;SDS011;2117;47.972;7.830;2023-03-01T05:20:55;26.30;;;16.10;;
4206;SDS011;2117;47.972;7.830;2023-03-01T05:23:26;31.87;;;15.67;;
4206;SDS011;2117;47.972;7.830;2023-03-01T05:25:52;28.30;;;16.37;;
4206;SDS011;2117;47.972;7.830;2023-03-01T05:28:18;24.83;;;15.97;;
4206;SDS011;2117;47.972;7.830;2023-03-01T05:30:44;31.20;;;17.63;;
4206;SDS011;2117;47.972;7.830;2023-03-01T05:33:10;30.43;;;17.20;;
4206;SDS011;2117;47.972;7.830;2023-03-01T05:35:42;27.83;;;15.60;;
4206;SDS011;2117;47.972;7.830;2023-03-01T05:38:12;27.10;;;16.93;;
4206;SDS011;2117;47.972;7.830;2023-03-01T05:40:38;30.63;;;17.03;;
4206;SDS011;2117;47.972;7.830;2023-03-01T05:43:04;29.13;;;14.50;;
4206;SDS011;2117;47.972;7.830;2023-03-01T05:45:30;28.33;;;14.53;;
4206;SDS011;2117;47.972;7.830;2023-03-01T05:47:57;26.77;;;15.00;;
4206;SDS011;2117;47.972;7.830;2023-03-01T05:50:27;27.60;;;14.47;;
4206;SDS011;2117;47.972;7.830;2023-03-01T05:53:01;30.23;;;15.27;;
4206;SDS011;2117;47.972;7.830;2023-03-01T05:55:32;31.63;;;15.80;;
4206;SDS011;2117;47.972;7.830;2023-03-01T05:57:59;31.60;;;15.43;;
4206;SDS011;2117;47.972;7.830;2023-03-01T06:00:26;27.70;;;16.43;;
4206;SDS011;2117;47.972;7.830;2023-03-01T06:02:53;34.10;;;15.40;;
4206;SDS011;2117;47.972;7.830;2023-03-01T06:05:19;25.23;;;14.93;;
4206;SDS011;2117;47.972;7.830;2023-03-01T06:07:45;28.30;;;14.53;;
4206;SDS011;2117;47.972;7.830;2023-03-01T06:10:11;24.40;;;15.23;;
4206;SDS011;2117;47.972;7.830;2023-03-01T06:12:38;31.50;;;16.73;;
4206;SDS011;2117;47.972;7.830;2023-03-01T06:15:05;29.70;;;17.43;;
4206;SDS011;2117;47.972;7.830;2023-03-01T06:17:33;29.73;;;16.70;;
4206;SDS011;2117;47.972;7.830;2023-03-01T06:20:02;30.47;;;16.67;;
4206;SDS011;2117;47.972;7.830;2023-03-01T06:22:29;27.30;;;17.23;;
4206;SDS011;2117;47.972;7.830;2023-03-01T06:24:54;26.30;;;16.43;;
4206;SDS011;2117;47.972;7.830;2023-03-01T06:27:20;26.47;;;14.57;;
4206;SDS011;2117;47.972;7.830;2023-03-01T06:29:46;20.50;;;13.80;;
4206;SDS011;2117;47.972;7.830;2023-03-01T06:32:11;27.60;;;15.87;;
4206;SDS011;2117;47.972;7.830;2023-03-01T06:34:37;32.17;;;15.00;;
4206;SDS011;2117;47.972;7.830;2023-03-01T06:37:03;24.90;;;14.40;;
4206;SDS011;2117;47.972;7.830;2023-03-01T06:39:30;28.00;;;15.50;;
4206;SDS011;2117;47.972;7.830;2023-03-01T06:41:59;26.53;;;14.47;;
4206;SDS011;2117;47.972;7.830;2023-03-01T06:44:27;28.50;;;15.90;;
4206;SDS011;2117;47.972;7.830;2023-03-01T06:46:53;26.60;;;15.83;;
4206;SDS011;2117;47.972;7.830;2023-03-01T06:49:19;29.07;;;15.07;;
4206;SDS011;2117;47.972;7.830;2023-03-01T06:51:44;30.27;;;15.07;;
4206;SDS011;2117;47.972;7.830;2023-03-01T06:54:11;25.83;;;13.50;;
4206;SDS011;2117;47.972;7.830;2023-03-01T06:56:37;31.80;;;15.90;;
4206;SDS011;2117;47.972;7.830;2023-03-01T06:59:03;28.60;;;14.60;;
4206;SDS011;2117;47.972;7.830;2023-03-01T07:01:29;25.63;;;15.23;;
4206;SDS011;2117;47.972;7.830;2023-03-01T07:03:55;28.77;;;15.00;;
4206;SDS011;2117;47.972;7.830;2023-03-01T07:06:21;25.70;;;14.70;;
4206;SDS011;2117;47.972;7.830;2023-03-01T07:08:47;25.13;;;14.60;;
4206;SDS011;2117;47.972;7.830;2023-03-01T07:11:13;26.97;;;15.10;;
4206;SDS011;2117;47.972;7.830;2023-03-01T07:13:39;25.00;;;14.33;;
4206;SDS011;2117;47.972;7.830;2023-03-01T07:16:05;30.37;;;15.07;;
4206;SDS011;2117;47.972;7.830;2023-03-01T07:18:31;22.80;;;14.87;;
4206;SDS011;2117;47.972;7.830;2023-03-01T07:20:56;27.43;;;15.87;;
4206;SDS011;2117;47.972;7.830;2023-03-01T07:23:22;24.57;;;15.80;;
4206;SDS011;2117;47.972;7.830;2023-03-01T07:25:54;26.53;;;14.83;;
4206;SDS011;2117;47.972;7.830;2023-03-01T07:28:20;29.80;;;15.40;;
4206;SDS011;2117;47.972;7.830;2023-03-01T07:30:48;24.97;;;15.13;;
4206;SDS011;2117;47.972;7.830;2023-03-01T07:33:14;25.27;;;15.43;;
4206;SDS011;2117;47.972;7.830;2023-03-01T07:35:39;22.70;;;14.67;;
4206;SDS011;2117;47.972;7.830;2023-03-01T07:38:05;20.60;;;13.17;;
4206;SDS011;2117;47.972;7.830;2023-03-01T07:40:30;23.20;;;12.90;;
4206;SDS011;2117;47.972;7.830;2023-03-01T07:42:56;26.90;;;15.43;;
4206;SDS011;2117;47.972;7.830;2023-03-01T07:45:22;27.63;;;15.43;;
4206;SDS011;2117;47.972;7.830;2023-03-01T07:47:50;29.10;;;15.57;;
4206;SDS011;2117;47.972;7.830;2023-03-01T07:50:16;40.03;;;15.70;;
4206;SDS011;2117;47.972;7.830;2023-03-01T07:52:42;30.10;;;17.10;;
4206;SDS011;2117;47.972;7.830;2023-03-01T07:55:11;32.27;;;16.00;;
4206;SDS011;2117;47.972;7.830;2023-03-01T07:57:36;31.60;;;15.30;;
4206;SDS011;2117;47.972;7.830;2023-03-01T08:00:02;33.40;;;17.37;;
4206;SDS011;2117;47.972;7.830;2023-03-01T08:02:28;28.40;;;14.93;;
4206;SDS011;2117;47.972;7.830;2023-03-01T08:04:54;26.40;;;17.33;;
4206;SDS011;2117;47.972;7.830;2023-03-01T08:07:19;31.93;;;16.10;;
4206;SDS011;2117;47.972;7.830;2023-03-01T08:09:45;29.80;;;16.67;;
4206;SDS011;2117;47.972;7.830;2023-03-01T08:12:10;29.17;;;16.13;;
4206;SDS011;2117;47.972;7.830;2023-03-01T08:14:36;30.70;;;16.10;;
4206;SDS011;2117;47.972;7.830;2023-03-01T08:17:02;24.53;;;14.20;;
4206;SDS011;2117;47.972;7.830;2023-03-01T08:19:28;24.73;;;14.40;;
4206;SDS011;2117;47.972;7.830;2023-03-01T08:21:54;38.33;;;15.17;;
4206;SDS011;2117;47.972;7.830;2023-03-01T08:24:19;41.53;;;15.83;;
4206;SDS011;2117;47.972;7.830;2023-03-01T08:26:45;30.23;;;14.90;;
4206;SDS011;2117;47.972;7.830;2023-03-01T08:29:11;30.17;;;16.53;;
4206;SDS011;2117;47.972;7.830;2023-03-01T08:31:38;35.40;;;16.93;;
4206;SDS011;2117;47.972;7.830;2023-03-01T08:34:06;29.87;;;16.70;;
4206;SDS011;2117;47.972;7.830;2023-03-01T08:36:35;33.33;;;16.17;;
4206;SDS011;2117;47.972;7.830;2023-03-01T08:39:03;31.63;;;15.83;;
4206;SDS011;2117;47.972;7.830;2023-03-01T08:41:29;29.83;;;14.93;;
4206;SDS011;2117;47.972;7.830;2023-03-01T08:43:54;34.70;;;16.30;;
4206;SDS011;2117;47.972;7.830;2023-03-01T08:46:27;30.80;;;17.30;;
4206;SDS011;2117;47.972;7.830;2023-03-01T08:48:54;26.90;;;15.60;;
4206;SDS011;2117;47.972;7.830;2023-03-01T08:51:20;30.50;;;15.53;;
4206;SDS011;2117;47.972;7.830;2023-03-01T08:53:46;26.30;;;16.43;;
4206;SDS011;2117;47.972;7.830;2023-03-01T08:56:12;28.43;;;15.07;;
4206;SDS011;2117;47.972;7.830;2023-03-01T08:58:38;25.40;;;16.33;;
4206;SDS011;2117;47.972;7.830;2023-03-01T09:01:08;31.40;;;16.43;;
4206;SDS011;2117;47.972;7.830;2023-03-01T09:03:34;28.30;;;17.03;;
4206;SDS011;2117;47.972;7.830;2023-03-01T09:06:00;29.07;;;14.93;;
4206;SDS011;2117;47.972;7.830;2023-03-01T09:08:27;29.10;;;16.27;;
4206;SDS011;2117;47.972;7.830;2023-03-01T09:10:53;27.30;;;14.97;;
4206;SDS011;2117;47.972;7.830;2023-03-01T09:13:18;26.47;;;15.47;;
4206;SDS011;2117;47.972;7.830;2023-03-01T09:15:44;30.97;;;16.43;;
4206;SDS011;2117;47.972;7.830;2023-03-01T09:18:09;28.40;;;15.50;;
4206;SDS011;2117;47.972;7.830;2023-03-01T09:20:35;27.47;;;14.97;;
4206;SDS011;2117;47.972;7.830;2023-03-01T09:23:01;26.07;;;15.70;;
4206;SDS011;2117;47.972;7.830;2023-03-01T09:25:27;27.67;;;15.27;;
4206;SDS011;2117;47.972;7.830;2023-03-01T09:27:53;29.80;;;15.30;;
4206;SDS011;2117;47.972;7.830;2023-03-01T09:30:19;27.30;;;14.93;;
4206;SDS011;2117;47.972;7.830;2023-03-01T09:32:46;33.00;;;18.00;;
4206;SDS011;2117;47.972;7.830;2023-03-01T09:35:12;24.57;;;16.00;;
4206;SDS011;2117;47.972;7.830;2023-03-01T09:37:38;33.50;;;17.70;;
4206;SDS011;2117;47.972;7.830;2023-03-01T09:40:09;35.47;;;18.43;;
4206;SDS011;2117;47.972;7.830;2023-03-01T09:42:45;32.47;;;17.27;;
4206;SDS011;2117;47.972;7.830;2023-03-01T09:45:23;27.60;;;16.60;;
4206;SDS011;2117;47.972;7.830;2023-03-01T09:47:53;27.10;;;15.03;;
4206;SDS011;2117;47.972;7.830;2023-03-01T09:50:20;24.80;;;16.13;;
4206;SDS011;2117;47.972;7.830;2023-03-01T09:52:54;31.57;;;16.67;;
4206;SDS011;2117;47.972;7.830;2023-03-01T09:55:31;26.33;;;14.93;;
4206;SDS011;2117;47.972;7.830;2023-03-01T09:58:27;28.23;;;16.27;;
4206;SDS011;2117;47.972;7.830;2023-03-01T10:01:02;28.57;;;15.10;;
4206;SDS011;2117;47.972;7.830;2023-03-01T10:06:54;29.87;;;17.00;;
4206;SDS011;2117;47.972;7.830;2023-03-01T10:09:30;26.57;;;15.87;;
4206;SDS011;2117;47.972;7.830;2023-03-01T10:11:59;26.40;;;15.40;;
4206;SDS011;2117;47.972;7.830;2023-03-01T10:14:32;29.70;;;17.70;;
4206;SDS011;2117;47.972;7.830;2023-03-01T10:20:17;29.90;;;17.50;;
4206;SDS011;2117;47.972;7.830;2023-03-01T10:22:45;31.67;;;17.47;;
4206;SDS011;2117;47.972;7.830;2023-03-01T10:25:15;33.47;;;16.00;;
4206;SDS011;2117;47.972;7.830;2023-03-01T10:30:20;31.93;;;17.17;;
4206;SDS011;2117;47.972;7.830;2023-03-01T10:32:52;28.63;;;17.13;;
4206;SDS011;2117;47.972;7.830;2023-03-01T10:35:20;31.07;;;16.67;;
4206;SDS011;2117;47.972;7.830;2023-03-01T10:37:58;30.80;;;17.50;;
4206;SDS011;2117;47.972;7.830;2023-03-01T10:40:32;27.90;;;16.47;;
4206;SDS011;2117;47.972;7.830;2023-03-01T10:43:00;29.80;;;16.53;;
4206;SDS011;2117;47.972;7.830;2023-03-01T10:45:37;33.40;;;18.47;;
4206;SDS011;2117;47.972;7.830;2023-03-01T10:50:29;33.43;;;16.27;;
4206;SDS011;2117;47.972;7.830;2023-03-01T10:52:59;34.63;;;17.07;;
4206;SDS011;2117;47.972;7.830;2023-03-01T10:55:37;29.33;;;16.77;;
4206;SDS011;2117;47.972;7.830;2023-03-01T11:03:21;26.27;;;15.90;;
4206;SDS011;2117;47.972;7.830;2023-03-01T11:05:53;28.67;;;16.00;;
4206;SDS011;2117;47.972;7.830;2023-03-01T11:08:44;35.00;;;17.80;;
4206;SDS011;2117;47.972;7.830;2023-03-01T11:11:13;23.73;;;15.73;;
4206;SDS011;2117;47.972;7.830;2023-03-01T11:13:55;27.13;;;17.20;;
4206;SDS011;2117;47.972;7.830;2023-03-01T11:16:32;26.03;;;15.93;;
4206;SDS011;2117;47.972;7.830;2023-03-01T11:19:07;33.07;;;18.10;;
4206;SDS011;2117;47.972;7.830;2023-03-01T11:21:43;33.27;;;18.53;;
4206;SDS011;2117;47.972;7.830;2023-03-01T11:24:34;36.17;;;18.37;;
4206;SDS011;2117;47.972;7.830;2023-03-01T11:27:08;32.70;;;17.80;;
4206;SDS011;2117;47.972;7.830;2023-03-01T11:32:28;29.47;;;17.13;;
4206;SDS011;2117;47.972;7.830;2023-03-01T11:35:24;26.30;;;17.60;;
4206;SDS011;2117;47.972;7.830;2023-03-01T11:48:53;23.90;;;16.07;;
4206;SDS011;2117;47.972;7.830;2023-03-01T11:54:13;30.93;;;19.57;;
4206;SDS011;2117;47.972;7.830;2023-03-01T11:57:00;27.53;;;15.77;;
4206;SDS011;2117;47.972;7.830;2023-03-01T12:02:42;30.23;;;18.47;;
4206;SDS011;2117;47.972;7.830;2023-03-01T12:14:13;29.13;;;17.40;;
4206;SDS011;2117;47.972;7.830;2023-03-01T12:19:32;28.70;;;16.57;;
4206;SDS011;2117;47.972;7.830;2023-03-01T12:22:42;28.30;;;16.40;;
4206;SDS011;2117;47.972;7.830;2023-03-01T12:25:21;28.07;;;16.47;;
4206;SDS011;2117;47.972;7.830;2023-03-01T12:36:19;28.17;;;16.70;;
4206;SDS011;2117;47.972;7.830;2023-03-01T12:47:16;25.87;;;14.90;;
4206;SDS011;2117;47.972;7.830;2023-03-01T12:49:49;15.20;;;9.30;;
4206;SDS011;2117;47.972;7.830;2023-03-01T12:52:24;24.73;;;13.80;;
4206;SDS011;2117;47.972;7.830;2023-03-01T12:55:08;21.70;;;15.13;;
4206;SDS011;2117;47.972;7.830;2023-03-01T12:57:56;24.10;;;16.17;;
4206;SDS011;2117;47.972;7.830;2023-03-01T13:03:12;24.60;;;15.47;;
4206;SDS011;2117;47.972;7.830;2023-03-01T13:06:15;23.40;;;13.73;;
4206;SDS011;2117;47.972;7.830;2023-03-01T13:08:51;26.90;;;15.20;;
4206;SDS011;2117;47.972;7.830;2023-03-01T13:11:28;24.87;;;14.73;;
4206;SDS011;2117;47.972;7.830;2023-03-01T13:16:48;19.80;;;13.37;;
4206;SDS011;2117;47.972;7.830;2023-03-01T13:19:19;16.83;;;12.70;;
4206;SDS011;2117;47.972;7.830;2023-03-01T13:21:57;19.27;;;13.60;;
4206;SDS011;2117;47.972;7.830;2023-03-01T13:29:45;19.67;;;12.50;;
4206;SDS011;2117;47.972;7.830;2023-03-01T13:32:34;18.13;;;12.80;;
4206;SDS011;2117;47.972;7.830;2023-03-01T13:37:40;17.67;;;13.00;;
4206;SDS011;2117;47.972;7.830;2023-03-01T13:45:52;17.40;;;12.37;;
4206;SDS011;2117;47.972;7.830;2023-03-01T13:48:22;14.40;;;10.90;;
4206;SDS011;2117;47.972;7.830;2023-03-01T13:50:51;22.13;;;13.23;;
4206;SDS011;2117;47.972;7.830;2023-03-01T13:53:22;19.17;;;13.50;;
4206;SDS011;2117;47.972;7.830;2023-03-01T13:55:51;22.23;;;13.93;;
4206;SDS011;2117;47.972;7.830;2023-03-01T13:58:46;19.10;;;12.80;;
4206;SDS011;2117;47.972;7.830;2023-03-01T14:01:22;19.20;;;12.73;;
4206;SDS011;2117;47.972;7.830;2023-03-01T14:03:53;19.40;;;12.57;;
4206;SDS011;2117;47.972;7.830;2023-03-01T14:06:26;18.40;;;12.00;;
4206;SDS011;2117;47.972;7.830;2023-03-01T14:12:16;19.73;;;12.70;;
4206;SDS011;2117;47.972;7.830;2023-03-01T14:15:04;21.53;;;14.50;;
4206;SDS011;2117;47.972;7.830;2023-03-01T14:17:52;24.13;;;14.70;;
4206;SDS011;2117;47.972;7.830;2023-03-01T14:20:20;22.40;;;13.30;;
4206;SDS011;2117;47.972;7.830;2023-03-01T14:22:49;21.00;;;14.17;;
4206;SDS011;2117;47.972;7.830;2023-03-01T14:25:36;18.87;;;12.97;;
4206;SDS011;2117;47.972;7.830;2023-03-01T14:28:04;20.00;;;14.17;;
4206;SDS011;2117;47.972;7.830;2023-03-01T14:30:47;17.47;;;12.80;;
4206;SDS011;2117;47.972;7.830;2023-03-01T14:33:19;20.73;;;13.50;;
4206;SDS011;2117;47.972;7.830;2023-03-01T14:35:58;23.20;;;12.90;;
4206;SDS011;2117;47.972;7.830;2023-03-01T14:38:30;19.80;;;14.10;;
4206;SDS011;2117;47.972;7.830;2023-03-01T14:41:00;18.37;;;13.80;;
4206;SDS011;2117;47.972;7.830;2023-03-01T14:43:28;27.13;;;12.87;;
4206;SDS011;2117;47.972;7.830;2023-03-01T14:45:55;22.47;;;14.20;;
4206;SDS011;2117;47.972;7.830;2023-03-01T14:48:21;22.03;;;14.03;;
4206;SDS011;2117;47.972;7.830;2023-03-01T14:50:48;18.90;;;13.30;;
4206;SDS011;2117;47.972;7.830;2023-03-01T14:53:18;21.27;;;14.10;;
4206;SDS011;2117;47.972;7.830;2023-03-01T14:55:54;17.30;;;12.53;;
4206;SDS011;2117;47.972;7.830;2023-03-01T14:58:25;20.07;;;13.70;;
4206;SDS011;2117;47.972;7.830;2023-03-01T15:00:53;23.17;;;13.53;;
4206;SDS011;2117;47.972;7.830;2023-03-01T15:03:31;26.10;;;14.93;;
4206;SDS011;2117;47.972;7.830;2023-03-01T15:05:58;22.17;;;14.10;;
4206;SDS011;2117;47.972;7.830;2023-03-01T15:08:27;28.27;;;13.93;;
4206;SDS011;2117;47.972;7.830;2023-03-01T15:11:43;26.00;;;14.83;;
4206;SDS011;2117;47.972;7.830;2023-03-01T15:13:49;24.30;;;15.00;;
4206;SDS011;2117;47.972;7.830;2023-03-01T15:16:16;21.40;;;13.80;;
4206;SDS011;2117;47.972;7.830;2023-03-01T15:18:57;19.17;;;13.97;;
4206;SDS011;2117;47.972;7.830;2023-03-01T15:21:26;19.07;;;13.00;;
4206;SDS011;2117;47.972;7.830;2023-03-01T15:23:57;19.90;;;14.53;;
4206;SDS011;2117;47.972;7.830;2023-03-01T15:26:29;25.23;;;13.87;;
4206;SDS011;2117;47.972;7.830;2023-03-01T15:28:58;27.17;;;15.67;;
4206;SDS011;2117;47.972;7.830;2023-03-01T15:33:52;29.47;;;19.07;;
4206;SDS011;2117;47.972;7.830;2023-03-01T15:36:33;31.00;;;18.57;;
4206;SDS011;2117;47.972;7.830;2023-03-01T15:39:25;25.43;;;18.30;;
4206;SDS011;2117;47.972;7.830;2023-03-01T15:41:53;30.97;;;19.80;;
4206;SDS011;2117;47.972;7.830;2023-03-01T15:46:53;30.53;;;19.90;;
4206;SDS011;2117;47.972;7.830;2023-03-01T15:49:38;31.03;;;19.07;;
4206;SDS011;2117;47.972;7.830;2023-03-01T15:52:22;31.90;;;20.43;;
4206;SDS011;2117;47.972;7.830;2023-03-01T15:54:54;30.33;;;20.13;;
4206;SDS011;2117;47.972;7.830;2023-03-01T15:57:28;34.53;;;20.30;;
4206;SDS011;2117;47.972;7.830;2023-03-01T15:59:54;35.93;;;20.07;;
4206;SDS011;2117;47.972;7.830;2023-03-01T16:02:20;33.57;;;20.83;;
4206;SDS011;2117;47.972;7.830;2023-03-01T16:04:46;31.43;;;20.20;;
4206;SDS011;2117;47.972;7.830;2023-03-01T16:07:13;28.57;;;19.33;;
4206;SDS011;2117;47.972;7.830;2023-03-01T16:09:39;39.60;;;20.73;;
4206;SDS011;2117;47.972;7.830;2023-03-01T16:12:05;32.00;;;20.40;;
4206;SDS011;2117;47.972;7.830;2023-03-01T16:14:34;33.50;;;19.73;;
4206;SDS011;2117;47.972;7.830;2023-03-01T16:17:00;28.00;;;17.40;;
4206;SDS011;2117;47.972;7.830;2023-03-01T16:19:25;34.43;;;20.77;;
4206;SDS011;2117;47.972;7.830;2023-03-01T16:21:51;27.90;;;18.63;;
4206;SDS011;2117;47.972;7.830;2023-03-01T16:24:16;32.73;;;19.87;;
4206;SDS011;2117;47.972;7.830;2023-03-01T16:26:42;34.40;;;20.67;;
4206;SDS011;2117;47.972;7.830;2023-03-01T16:29:08;37.60;;;22.03;;
4206;SDS011;2117;47.972;7.830;2023-03-01T16:31:33;30.10;;;19.53;;
4206;SDS011;2117;47.972;7.830;2023-03-01T16:33:59;35.70;;;20.97;;
4206;SDS011;2117;47.972;7.830;2023-03-01T16:36:25;31.83;;;21.10;;
4206;SDS011;2117;47.972;7.830;2023-03-01T16:38:53;32.33;;;18.33;;
4206;SDS011;2117;47.972;7.830;2023-03-01T16:41:20;34.60;;;21.33;;
4206;SDS011;2117;47.972;7.830;2023-03-01T16:43:47;34.00;;;19.70;;
4206;SDS011;2117;47.972;7.830;2023-03-01T16:46:14;32.97;;;19.80;;